Anna M — TCAD8 — position and weather

sailwx.info

Track history (hours):
 
Tides and Currents Weather Stations Pressure Air Temp Water Temp Dewpoint Dewpoint Depression Visibility Wind Speed Wind Dir Waves Ship Positions

Anna M

Last reported at 2017-Sep-20 22:50 UTC. Time now 2017-Sep-26 22:03 UTC.
Position N 44°09' E 028°39'.

Length 67 m; draft 5 m.

Type: Cargo ship. MMSI: 271002123.

Date/timePositionNaut miles runAvg speedWind from/ knotsBaromVisibWave heightAir tempDewpointWater temp
2017-Sep-20 22:50N 44°09' E 028°39'0 0.0
2017-Sep-20 18:30N 44°09' E 028°39'4 5.4
2017-Sep-20 17:43N 44°06' E 028°42'1 4.1
2017-Sep-20 17:30N 44°06' E 028°44'3 6.6
2017-Sep-20 17:00N 44°09' E 028°44'4 8.8
2017-Sep-20 16:30N 44°14' E 028°44'4 8.6
2017-Sep-20 16:00N 44°18' E 028°42'  
2017-Sep-18 11:57N 44°21' E 028°41'0 0.0
2017-Sep-18 11:29N 44°21' E 028°41'0 0.0
2017-Sep-18 11:00N 44°21' E 028°41'0 0.0
2017-Sep-18 10:30N 44°21' E 028°41'0 0.0
2017-Sep-18 09:59N 44°21' E 028°41'0 0.0
2017-Sep-18 09:30N 44°21' E 028°41'0 0.0
2017-Sep-18 08:58N 44°21' E 028°41'0 0.0
2017-Sep-18 08:27N 44°21' E 028°41'0 0.0
2017-Sep-18 08:00N 44°21' E 028°41'0 0.0
2017-Sep-18 06:48N 44°21' E 028°41'0 0.0
2017-Sep-18 06:31N 44°21' E 028°41'0 0.0
2017-Sep-18 06:00N 44°21' E 028°41'0 0.0
2017-Sep-18 05:30N 44°21' E 028°41'1 2.5
2017-Sep-18 05:01N 44°19' E 028°42'3 6.6
2017-Sep-18 04:31N 44°17' E 028°44'2 4.6
2017-Sep-18 04:00N 44°14' E 028°45'0 0.5
2017-Sep-18 03:30N 44°15' E 028°45'0 0.3
2017-Sep-18 03:00N 44°15' E 028°45'1 2.0
2017-Sep-18 02:31N 44°15' E 028°44'0 0.7
2017-Sep-18 01:57N 44°15' E 028°44'0 0.8
2017-Sep-18 01:30N 44°16' E 028°44'0 0.7
2017-Sep-18 01:01N 44°16' E 028°45'1 1.7
2017-Sep-18 00:27N 44°15' E 028°46'8 0.4
2017-Sep-17 06:12N 44°07' E 028°44'0 0.0
2017-Sep-17 05:57N 44°07' E 028°44'0 0.0
2017-Sep-17 05:08N 44°07' E 028°44'0 0.2
2017-Sep-17 04:59N 44°07' E 028°44'0 0.0
2017-Sep-17 04:26N 44°07' E 028°44'0 0.0
2017-Sep-17 03:56N 44°07' E 028°44'0 0.0
2017-Sep-17 03:29N 44°07' E 028°44'0 0.0
2017-Sep-17 02:59N 44°07' E 028°44'0 0.0
2017-Sep-17 02:29N 44°07' E 028°44'0 0.0
2017-Sep-17 01:58N 44°07' E 028°44'0 0.0
2017-Sep-17 01:28N 44°07' E 028°44'0 0.0
2017-Sep-17 00:58N 44°07' E 028°44'0 0.0
2017-Sep-17 00:26N 44°07' E 028°44'0 0.0
2017-Sep-16 23:59N 44°07' E 028°44'0 0.0
2017-Sep-16 23:29N 44°07' E 028°44'0 0.0
2017-Sep-16 22:59N 44°07' E 028°44'0 0.0
2017-Sep-16 22:26N 44°07' E 028°44'0 0.0
2017-Sep-16 21:59N 44°07' E 028°44'0 0.0
2017-Sep-16 21:29N 44°07' E 028°44'0 0.0
2017-Sep-16 20:57N 44°07' E 028°44'0 0.0
2017-Sep-16 20:28N 44°07' E 028°44'0 0.0
2017-Sep-16 20:00N 44°07' E 028°44'0 0.0
2017-Sep-16 19:30N 44°07' E 028°44'0 0.0
2017-Sep-16 19:01N 44°07' E 028°44'0 0.0
2017-Sep-16 18:30N 44°07' E 028°44'0 0.0
2017-Sep-16 17:58N 44°07' E 028°44'0 0.0
2017-Sep-16 12:36N 44°07' E 028°44'0 0.1
2017-Sep-16 12:30N 44°07' E 028°44'0 0.0
2017-Sep-16 11:32N 44°07' E 028°44'0 0.2
2017-Sep-16 11:29N 44°07' E 028°44'0 0.0
2017-Sep-16 10:56N 44°07' E 028°44'0 0.0
2017-Sep-16 10:29N 44°07' E 028°44'0 0.0
2017-Sep-16 09:59N 44°07' E 028°44'0 0.0
2017-Sep-16 09:29N 44°07' E 028°44'0 0.0
2017-Sep-16 08:58N 44°07' E 028°44'0 0.0
2017-Sep-16 07:16N 44°07' E 028°44'4 6.6
2017-Sep-16 06:37N 44°04' E 028°48'1 9.3
2017-Sep-16 06:30N 44°03' E 028°49'5 9.1
2017-Sep-16 06:00N 43°59' E 028°51'4 8.8
2017-Sep-16 05:30N 43°55' E 028°51'4 8.8
2017-Sep-16 05:00N 43°50' E 028°51'4 8.5
2017-Sep-16 04:30N 43°46' E 028°49'5 8.5
2017-Sep-16 03:58N 43°42' E 028°47'4 8.5
2017-Sep-16 03:30N 43°38' E 028°46'4 8.5
2017-Sep-16 03:00N 43°34' E 028°44'4 8.5
2017-Sep-16 02:30N 43°30' E 028°43'4 8.4
2017-Sep-16 02:00N 43°26' E 028°42'6 8.2
2017-Sep-16 01:19N 43°20' E 028°40'3 8.2
2017-Sep-16 01:00N 43°18' E 028°39'4 8.4
2017-Sep-16 00:28N 43°13' E 028°38'4 8.4
2017-Sep-16 00:00N 43°09' E 028°36'4 8.5
2017-Sep-15 23:29N 43°05' E 028°34'4 8.7
2017-Sep-15 23:00N 43°01' E 028°32'4 8.9
2017-Sep-15 22:30N 42°57' E 028°31'5 9.1
2017-Sep-15 22:00N 42°53' E 028°28'5 9.0
2017-Sep-15 21:30N 42°49' E 028°26'4 8.8
2017-Sep-15 21:00N 42°44' E 028°24'23 8.0
2017-Sep-15 18:04N 42°21' E 028°26'1 8.0
2017-Sep-15 17:57N 42°20' E 028°27'4 7.9
2017-Sep-15 17:30N 42°17' E 028°29'4 8.0
2017-Sep-15 17:00N 42°14' E 028°31'4 7.9
2017-Sep-15 16:30N 42°10' E 028°34'4 7.7
2017-Sep-15 16:00N 42°06' E 028°36'4 7.8
2017-Sep-15 15:30N 42°03' E 028°38'4 7.7
2017-Sep-15 15:00N 41°59' E 028°40'4 7.6
2017-Sep-15 14:30N 41°55' E 028°41'13 7.7
2017-Sep-15 12:47N 41°44' E 028°50'2 7.9
2017-Sep-15 12:30N 41°42' E 028°51'  
Track history (hours):
 
Tides and Currents Weather Stations Pressure Air Temp Water Temp Dewpoint Dewpoint Depression Visibility Wind Speed Wind Dir Waves Ship Positions

Anna M

Last reported at 2017-Sep-20 22:50 UTC. Time now 2017-Sep-26 22:03 UTC.
Position N 44°09' E 028°39'.

Length 67 m; draft 5 m.

Type: Cargo ship. MMSI: 271002123.

Date/timePositionNaut miles runAvg speedWind from/ knotsBaromVisibWave heightAir tempDewpointWater temp
2017-Sep-20 22:50N 44°09' E 028°39'0 0.0
2017-Sep-20 18:30N 44°09' E 028°39'4 5.4
2017-Sep-20 17:43N 44°06' E 028°42'1 4.1
2017-Sep-20 17:30N 44°06' E 028°44'3 6.6
2017-Sep-20 17:00N 44°09' E 028°44'4 8.8
2017-Sep-20 16:30N 44°14' E 028°44'4 8.6
2017-Sep-20 16:00N 44°18' E 028°42'  
2017-Sep-18 11:57N 44°21' E 028°41'0 0.0
2017-Sep-18 11:29N 44°21' E 028°41'0 0.0
2017-Sep-18 11:00N 44°21' E 028°41'0 0.0
2017-Sep-18 10:30N 44°21' E 028°41'0 0.0
2017-Sep-18 09:59N 44°21' E 028°41'0 0.0
2017-Sep-18 09:30N 44°21' E 028°41'0 0.0
2017-Sep-18 08:58N 44°21' E 028°41'0 0.0
2017-Sep-18 08:27N 44°21' E 028°41'0 0.0
2017-Sep-18 08:00N 44°21' E 028°41'0 0.0
2017-Sep-18 06:48N 44°21' E 028°41'0 0.0
2017-Sep-18 06:31N 44°21' E 028°41'0 0.0
2017-Sep-18 06:00N 44°21' E 028°41'0 0.0
2017-Sep-18 05:30N 44°21' E 028°41'1 2.5
2017-Sep-18 05:01N 44°19' E 028°42'3 6.6
2017-Sep-18 04:31N 44°17' E 028°44'2 4.6
2017-Sep-18 04:00N 44°14' E 028°45'0 0.5
2017-Sep-18 03:30N 44°15' E 028°45'0 0.3
2017-Sep-18 03:00N 44°15' E 028°45'1 2.0
2017-Sep-18 02:31N 44°15' E 028°44'0 0.7
2017-Sep-18 01:57N 44°15' E 028°44'0 0.8
2017-Sep-18 01:30N 44°16' E 028°44'0 0.7
2017-Sep-18 01:01N 44°16' E 028°45'1 1.7
2017-Sep-18 00:27N 44°15' E 028°46'8 0.4
2017-Sep-17 06:12N 44°07' E 028°44'0 0.0
2017-Sep-17 05:57N 44°07' E 028°44'0 0.0
2017-Sep-17 05:08N 44°07' E 028°44'0 0.2
2017-Sep-17 04:59N 44°07' E 028°44'0 0.0
2017-Sep-17 04:26N 44°07' E 028°44'0 0.0
2017-Sep-17 03:56N 44°07' E 028°44'0 0.0
2017-Sep-17 03:29N 44°07' E 028°44'0 0.0
2017-Sep-17 02:59N 44°07' E 028°44'0 0.0
2017-Sep-17 02:29N 44°07' E 028°44'0 0.0
2017-Sep-17 01:58N 44°07' E 028°44'0 0.0
2017-Sep-17 01:28N 44°07' E 028°44'0 0.0
2017-Sep-17 00:58N 44°07' E 028°44'0 0.0
2017-Sep-17 00:26N 44°07' E 028°44'0 0.0
2017-Sep-16 23:59N 44°07' E 028°44'0 0.0
2017-Sep-16 23:29N 44°07' E 028°44'0 0.0
2017-Sep-16 22:59N 44°07' E 028°44'0 0.0
2017-Sep-16 22:26N 44°07' E 028°44'0 0.0
2017-Sep-16 21:59N 44°07' E 028°44'0 0.0
2017-Sep-16 21:29N 44°07' E 028°44'0 0.0
2017-Sep-16 20:57N 44°07' E 028°44'0 0.0
2017-Sep-16 20:28N 44°07' E 028°44'0 0.0
2017-Sep-16 20:00N 44°07' E 028°44'0 0.0
2017-Sep-16 19:30N 44°07' E 028°44'0 0.0
2017-Sep-16 19:01N 44°07' E 028°44'0 0.0
2017-Sep-16 18:30N 44°07' E 028°44'0 0.0
2017-Sep-16 17:58N 44°07' E 028°44'0 0.0
2017-Sep-16 12:36N 44°07' E 028°44'0 0.1
2017-Sep-16 12:30N 44°07' E 028°44'0 0.0
2017-Sep-16 11:32N 44°07' E 028°44'0 0.2
2017-Sep-16 11:29N 44°07' E 028°44'0 0.0
2017-Sep-16 10:56N 44°07' E 028°44'0 0.0
2017-Sep-16 10:29N 44°07' E 028°44'0 0.0
2017-Sep-16 09:59N 44°07' E 028°44'0 0.0
2017-Sep-16 09:29N 44°07' E 028°44'0 0.0
2017-Sep-16 08:58N 44°07' E 028°44'0 0.0
2017-Sep-16 07:16N 44°07' E 028°44'4 6.6
2017-Sep-16 06:37N 44°04' E 028°48'1 9.3
2017-Sep-16 06:30N 44°03' E 028°49'5 9.1
2017-Sep-16 06:00N 43°59' E 028°51'4 8.8
2017-Sep-16 05:30N 43°55' E 028°51'4 8.8
2017-Sep-16 05:00N 43°50' E 028°51'4 8.5
2017-Sep-16 04:30N 43°46' E 028°49'5 8.5
2017-Sep-16 03:58N 43°42' E 028°47'4 8.5
2017-Sep-16 03:30N 43°38' E 028°46'4 8.5
2017-Sep-16 03:00N 43°34' E 028°44'4 8.5
2017-Sep-16 02:30N 43°30' E 028°43'4 8.4
2017-Sep-16 02:00N 43°26' E 028°42'6 8.2
2017-Sep-16 01:19N 43°20' E 028°40'3 8.2
2017-Sep-16 01:00N 43°18' E 028°39'4 8.4
2017-Sep-16 00:28N 43°13' E 028°38'4 8.4
2017-Sep-16 00:00N 43°09' E 028°36'4 8.5
2017-Sep-15 23:29N 43°05' E 028°34'4 8.7
2017-Sep-15 23:00N 43°01' E 028°32'4 8.9
2017-Sep-15 22:30N 42°57' E 028°31'5 9.1
2017-Sep-15 22:00N 42°53' E 028°28'5 9.0
2017-Sep-15 21:30N 42°49' E 028°26'4 8.8
2017-Sep-15 21:00N 42°44' E 028°24'23 8.0
2017-Sep-15 18:04N 42°21' E 028°26'1 8.0
2017-Sep-15 17:57N 42°20' E 028°27'4 7.9
2017-Sep-15 17:30N 42°17' E 028°29'4 8.0
2017-Sep-15 17:00N 42°14' E 028°31'4 7.9
2017-Sep-15 16:30N 42°10' E 028°34'4 7.7
2017-Sep-15 16:00N 42°06' E 028°36'4 7.8
2017-Sep-15 15:30N 42°03' E 028°38'4 7.7
2017-Sep-15 15:00N 41°59' E 028°40'4 7.6
2017-Sep-15 14:30N 41°55' E 028°41'13 7.7
2017-Sep-15 12:47N 41°44' E 028°50'2 7.9
2017-Sep-15 12:30N 41°42' E 028°51'  

Dump ship's entire track history